Time;durP1;ratioP1;P1;durP2;ratioP2;P2;SDS_P1;SDS_P2;PMS_P1;PMS_P2;Temp;Humidity;BMP_temperature;BMP_pressure;BME280_temperature;BME280_humidity;BME280_pressure;Samples;Min_cycle;Max_cycle;Signal;HPM_P1;HPM_P2
2023/06/30 00:02:04;;;;;;;7.50;4.45;;;13.80;99.90;;;;;;6245280;23;20031;-60
2023/06/30 00:04:32;;;;;;;7.15;4.60;;;13.80;99.90;;;;;;6245417;22;20024;-60
2023/06/30 00:07:01;;;;;;;17.52;5.20;;;13.70;99.90;;;;;;6242850;23;20020;-60
2023/06/30 00:09:28;;;;;;;19.20;5.30;;;13.70;99.90;;;;;;6245456;23;20389;-60
2023/06/30 00:11:56;;;;;;;13.13;4.22;;;13.70;99.90;;;;;;6245563;22;20027;-60
2023/06/30 00:14:23;;;;;;;11.18;3.88;;;13.70;99.90;;;;;;6244726;23;20020;-60
2023/06/30 00:16:50;;;;;;;13.65;4.72;;;13.60;99.90;;;;;;6244998;23;20450;-60
2023/06/30 00:19:18;;;;;;;11.23;4.53;;;13.60;99.90;;;;;;6245475;23;20020;-60
2023/06/30 00:21:45;;;;;;;12.65;4.28;;;13.50;99.90;;;;;;6244418;23;20066;-60
2023/06/30 00:24:14;;;;;;;13.20;4.28;;;13.50;99.90;;;;;;6243614;23;20074;-61
2023/06/30 00:26:41;;;;;;;7.72;4.20;;;13.50;99.90;;;;;;6242730;23;20031;-60
2023/06/30 00:29:08;;;;;;;9.95;3.58;;;13.50;99.90;;;;;;6243574;23;20024;-60
2023/06/30 00:31:35;;;;;;;15.88;5.35;;;13.40;99.90;;;;;;6243339;23;20028;-60
2023/06/30 00:34:02;;;;;;;9.63;4.28;;;13.40;99.90;;;;;;6244707;22;20024;-60
2023/06/30 00:36:31;;;;;;;11.23;4.50;;;13.40;99.90;;;;;;6245243;23;20413;-61
2023/06/30 00:38:58;;;;;;;11.82;4.60;;;13.40;99.90;;;;;;6245455;22;20442;-60
2023/06/30 00:41:26;;;;;;;10.00;4.55;;;13.40;99.90;;;;;;6243855;23;20063;-60
2023/06/30 00:43:53;;;;;;;15.30;4.32;;;13.30;99.90;;;;;;6247140;23;20051;-60
2023/06/30 00:46:20;;;;;;;8.73;4.25;;;13.30;99.90;;;;;;6247240;23;20359;-60
2023/06/30 00:48:48;;;;;;;16.98;4.70;;;13.30;99.90;;;;;;6244632;23;20028;-60
2023/06/30 00:51:14;;;;;;;11.85;3.63;;;13.30;99.90;;;;;;6245372;23;20020;-60
2023/06/30 00:53:42;;;;;;;8.55;4.15;;;13.30;99.90;;;;;;6247410;23;20396;-60
2023/06/30 00:56:09;;;;;;;10.98;3.90;;;13.30;99.90;;;;;;6244502;23;20028;-60
2023/06/30 00:58:37;;;;;;;13.90;4.30;;;13.30;99.90;;;;;;6247230;23;20345;-60
2023/06/30 01:01:11;;;;;;;12.88;4.30;;;13.30;99.90;;;;;;6247179;23;20020;-61
2023/06/30 01:03:44;;;;;;;10.48;4.70;;;13.30;99.90;;;;;;6244601;23;20020;-60
2023/06/30 01:06:17;;;;;;;9.85;3.90;;;13.20;99.90;;;;;;6245329;23;20024;-60
2023/06/30 01:08:49;;;;;;;12.20;4.78;;;13.20;99.90;;;;;;6246667;23;20450;-60
2023/06/30 01:11:18;;;;;;;7.97;4.10;;;13.20;99.90;;;;;;6247042;22;20016;-60
2023/06/30 01:13:48;;;;;;;8.93;4.55;;;13.20;99.90;;;;;;6246933;22;20057;-60
2023/06/30 01:16:16;;;;;;;;;;;13.20;99.90;;;;;;6246742;23;20074;-61
2023/06/30 01:18:45;;;;;;;14.93;4.85;;;13.20;99.90;;;;;;6245089;23;19916;-60
2023/06/30 01:21:14;;;;;;;13.38;5.47;;;13.20;99.90;;;;;;6247144;23;20074;-60
2023/06/30 01:23:48;;;;;;;9.80;4.63;;;13.10;99.90;;;;;;6246350;23;20409;-61
2023/06/30 01:26:16;;;;;;;14.65;4.85;;;13.10;99.90;;;;;;6247051;23;20403;-61
2023/06/30 01:28:44;;;;;;;11.27;5.05;;;13.20;99.90;;;;;;6246945;23;20031;-61
2023/06/30 01:31:13;;;;;;;9.85;4.25;;;13.10;99.90;;;;;;6245857;22;20529;-60
2023/06/30 01:33:41;;;;;;;13.18;4.43;;;13.10;99.90;;;;;;6246949;23;20095;-60
2023/06/30 01:36:08;;;;;;;10.50;4.97;;;13.10;99.90;;;;;;6246512;23;20446;-60
2023/06/30 01:38:35;;;;;;;5.95;3.90;;;13.10;99.90;;;;;;6245858;23;20028;-60
2023/06/30 01:41:04;;;;;;;12.07;4.05;;;13.10;99.90;;;;;;6244637;23;20022;-61
2023/06/30 01:43:32;;;;;;;13.10;3.95;;;13.00;99.90;;;;;;6246930;23;20081;-59
2023/06/30 01:45:59;;;;;;;10.27;4.97;;;13.10;99.90;;;;;;6245519;23;20042;-61
2023/06/30 01:48:28;;;;;;;11.65;4.43;;;13.00;99.90;;;;;;6246618;22;20030;-61
2023/06/30 01:50:56;;;;;;;10.82;4.10;;;12.90;99.90;;;;;;6246457;23;20024;-60
2023/06/30 01:53:24;;;;;;;9.10;4.40;;;12.90;99.90;;;;;;6244449;23;20027;-60
2023/06/30 01:55:54;;;;;;;7.05;4.50;;;12.90;99.90;;;;;;6246457;23;20028;-60
2023/06/30 01:58:21;;;;;;;12.95;5.32;;;12.90;99.90;;;;;;6246075;23;20028;-61
2023/06/30 02:00:48;;;;;;;7.95;4.97;;;12.80;99.90;;;;;;6246451;23;20077;-61
2023/06/30 02:03:15;;;;;;;8.43;4.95;;;12.80;99.90;;;;;;6246322;23;20020;-60
2023/06/30 02:05:44;;;;;;;9.90;5.15;;;12.80;99.90;;;;;;6244007;23;20024;-60
2023/06/30 02:08:10;;;;;;;12.55;4.90;;;12.70;99.90;;;;;;6246549;23;20020;-61
2023/06/30 02:10:37;;;;;;;8.85;4.65;;;12.70;99.90;;;;;;6246429;23;20052;-61
2023/06/30 02:13:04;;;;;;;9.25;4.28;;;12.70;99.90;;;;;;6245798;23;20020;-60
2023/06/30 02:15:31;;;;;;;11.30;4.45;;;12.60;99.90;;;;;;6244710;23;20028;-61
2023/06/30 02:17:58;;;;;;;14.63;4.97;;;12.60;99.90;;;;;;6246389;22;20119;-60
2023/06/30 02:20:26;;;;;;;10.55;4.47;;;12.60;99.90;;;;;;6243884;23;20020;-60
2023/06/30 02:22:54;;;;;;;10.85;4.35;;;12.50;99.90;;;;;;6245982;23;20102;-60
2023/06/30 02:25:21;;;;;;;11.60;5.50;;;12.50;99.90;;;;;;6246459;23;20134;-60
2023/06/30 02:27:50;;;;;;;12.60;5.25;;;12.40;99.90;;;;;;6245493;23;20035;-60
2023/06/30 02:30:17;;;;;;;14.70;4.70;;;12.40;99.90;;;;;;6244543;23;20028;-61
2023/06/30 02:32:45;;;;;;;18.35;4.55;;;12.40;99.90;;;;;;6246230;23;20030;-60
2023/06/30 02:35:12;;;;;;;12.35;4.95;;;12.40;99.90;;;;;;6243706;23;20034;-60
2023/06/30 02:37:40;;;;;;;11.85;5.63;;;12.40;99.90;;;;;;6244283;23;20477;-60
2023/06/30 02:40:09;;;;;;;9.40;4.72;;;12.30;99.90;;;;;;6246327;22;20438;-60
2023/06/30 02:42:36;;;;;;;7.55;4.82;;;12.30;99.90;;;;;;6245415;23;20028;-60
2023/06/30 02:45:04;;;;;;;9.98;4.72;;;12.30;99.90;;;;;;6245846;23;20027;-60
2023/06/30 02:47:31;;;;;;;13.02;5.28;;;12.30;99.90;;;;;;6244914;23;20481;-60
2023/06/30 02:49:58;;;;;;;13.00;5.68;;;12.30;99.90;;;;;;6246201;23;20024;-60
2023/06/30 02:52:25;;;;;;;8.82;4.95;;;12.30;99.90;;;;;;6244096;23;20433;-61
2023/06/30 02:54:52;;;;;;;8.52;4.50;;;12.20;99.90;;;;;;6245293;23;20024;-60
2023/06/30 02:57:21;;;;;;;9.90;4.80;;;12.20;99.90;;;;;;6245927;22;20353;-60
2023/06/30 02:59:48;;;;;;;9.57;4.30;;;12.20;99.90;;;;;;6244129;23;20028;-60
2023/06/30 03:02:15;;;;;;;11.63;5.13;;;12.10;99.90;;;;;;6245125;22;20030;-60
2023/06/30 03:04:42;;;;;;;12.88;4.72;;;12.10;99.90;;;;;;6245858;23;20024;-60
2023/06/30 03:07:09;;;;;;;11.43;4.70;;;12.10;99.90;;;;;;6245525;23;20028;-60
2023/06/30 03:09:36;;;;;;;8.15;4.15;;;12.10;99.90;;;;;;6244866;23;20353;-60
2023/06/30 03:12:03;;;;;;;9.30;4.63;;;12.10;99.90;;;;;;6245237;22;20020;-60
2023/06/30 03:14:31;;;;;;;23.05;5.35;;;12.10;99.90;;;;;;6243439;23;20029;-60
2023/06/30 03:16:58;;;;;;;13.68;4.93;;;12.10;99.90;;;;;;6244646;23;20032;-61
2023/06/30 03:19:25;;;;;;;10.77;4.65;;;12.10;99.90;;;;;;6243400;23;20031;-61
2023/06/30 03:21:52;;;;;;;12.30;4.80;;;12.10;99.90;;;;;;6245568;23;20066;-61
2023/06/30 03:24:19;;;;;;;9.43;4.68;;;12.00;99.90;;;;;;6243248;23;20034;-61
2023/06/30 03:26:46;;;;;;;10.20;4.93;;;12.00;99.90;;;;;;6243687;23;20027;-61
2023/06/30 03:29:13;;;;;;;7.32;4.40;;;12.00;99.90;;;;;;6243987;23;20458;-61
2023/06/30 03:31:41;;;;;;;11.13;4.38;;;12.10;99.90;;;;;;6244597;23;20053;-60
2023/06/30 03:34:08;;;;;;;14.05;4.53;;;12.10;99.90;;;;;;6245902;23;20020;-60
2023/06/30 03:36:35;;;;;;;12.35;4.38;;;12.10;99.90;;;;;;6244575;23;20504;-60
2023/06/30 03:39:02;;;;;;;12.70;4.60;;;12.10;99.90;;;;;;6245737;22;20043;-60
2023/06/30 03:41:29;;;;;;;11.48;4.97;;;12.10;99.90;;;;;;6245540;23;20020;-60
2023/06/30 03:43:56;;;;;;;11.73;4.65;;;12.10;99.90;;;;;;6244498;23;20031;-60
2023/06/30 03:46:23;;;;;;;8.65;4.68;;;12.10;99.90;;;;;;6245860;23;20020;-60
2023/06/30 03:48:52;;;;;;;10.70;4.80;;;12.10;99.90;;;;;;6245542;23;20020;-60
2023/06/30 03:51:18;;;;;;;13.43;5.55;;;12.10;99.90;;;;;;6243039;23;20084;-60
2023/06/30 03:53:45;;;;;;;13.45;4.68;;;12.10;99.90;;;;;;6243562;23;20024;-60
2023/06/30 03:56:12;;;;;;;8.05;4.70;;;12.10;99.90;;;;;;6245534;23;20026;-60
2023/06/30 03:58:39;;;;;;;8.65;4.72;;;12.10;99.90;;;;;;6244722;23;20056;-60
2023/06/30 04:01:07;;;;;;;7.38;5.13;;;12.10;99.90;;;;;;6243832;23;20024;-60
2023/06/30 04:03:34;;;;;;;11.40;4.28;;;12.20;99.90;;;;;;6245341;23;20469;-60
2023/06/30 04:06:02;;;;;;;13.38;5.20;;;12.20;99.90;;;;;;6244716;23;20346;-60
2023/06/30 04:08:30;;;;;;;8.68;4.65;;;12.30;99.90;;;;;;6245294;22;20131;-60
2023/06/30 04:10:56;;;;;;;9.50;4.82;;;12.30;99.90;;;;;;6245193;23;20024;-60
2023/06/30 04:13:23;;;;;;;11.60;5.28;;;12.30;99.90;;;;;;6242798;23;20020;-60
2023/06/30 04:15:50;;;;;;;12.88;4.85;;;12.40;99.90;;;;;;6243481;23;20536;-60
2023/06/30 04:18:17;;;;;;;7.78;4.30;;;12.40;99.90;;;;;;6243538;23;20024;-61
2023/06/30 04:20:46;;;;;;;7.53;4.18;;;12.40;99.90;;;;;;6242825;23;20439;-61
2023/06/30 04:23:14;;;;;;;10.95;4.28;;;12.50;99.90;;;;;;6241854;23;20028;-61
2023/06/30 04:25:41;;;;;;;8.85;4.90;;;12.70;99.90;;;;;;6243400;23;20346;-61
2023/06/30 04:28:08;;;;;;;10.93;4.43;;;12.90;99.90;;;;;;6241886;23;20032;-60
2023/06/30 04:30:35;;;;;;;8.50;3.70;;;13.30;99.90;;;;;;6241407;23;20358;-61
2023/06/30 04:33:02;;;;;;;15.02;5.25;;;13.60;99.90;;;;;;6243162;23;20123;-61
2023/06/30 04:35:29;;;;;;;11.68;4.68;;;13.90;99.90;;;;;;6244563;23;20358;-61
2023/06/30 04:37:56;;;;;;;7.90;4.18;;;13.90;99.90;;;;;;6243639;23;20324;-60
2023/06/30 04:40:25;;;;;;;9.60;4.07;;;14.00;99.90;;;;;;6241703;23;20061;-61
2023/06/30 04:42:52;;;;;;;10.05;3.90;;;14.00;99.90;;;;;;6243325;22;20020;-61
2023/06/30 04:45:19;;;;;;;7.75;3.85;;;14.00;99.90;;;;;;6244389;23;20024;-61
2023/06/30 04:47:46;;;;;;;9.27;4.03;;;14.10;99.90;;;;;;6242768;23;20031;-61
2023/06/30 04:50:13;;;;;;;9.95;3.60;;;14.20;99.90;;;;;;6242415;23;20034;-61
2023/06/30 04:52:40;;;;;;;8.52;3.53;;;14.20;99.90;;;;;;6241772;23;20020;-61
2023/06/30 04:55:07;;;;;;;6.60;3.58;;;14.30;99.90;;;;;;6243375;23;20031;-60
2023/06/30 04:57:36;;;;;;;9.05;3.25;;;14.50;99.90;;;;;;6242965;22;20462;-60
2023/06/30 05:00:03;;;;;;;7.45;3.67;;;14.60;99.90;;;;;;6243240;23;20028;-60
2023/06/30 05:02:30;;;;;;;10.18;3.50;;;14.70;99.90;;;;;;6243145;22;20020;-61
2023/06/30 05:04:57;;;;;;;6.63;3.03;;;14.70;99.90;;;;;;6243564;23;20024;-60
2023/06/30 05:07:24;;;;;;;6.82;3.45;;;14.90;99.90;;;;;;6243480;23;20465;-59
2023/06/30 05:09:51;;;;;;;9.07;3.72;;;14.90;99.90;;;;;;6241170;23;20028;-60
2023/06/30 05:12:18;;;;;;;10.60;4.00;;;15.10;99.90;;;;;;6243926;23;20436;-60
2023/06/30 05:14:46;;;;;;;9.05;3.75;;;15.30;99.90;;;;;;6242278;23;20020;-61
2023/06/30 05:17:13;;;;;;;8.60;3.72;;;15.40;99.90;;;;;;6243125;23;20020;-61
2023/06/30 05:19:40;;;;;;;8.82;3.80;;;15.50;99.90;;;;;;6243480;23;20024;-60
2023/06/30 05:22:07;;;;;;;6.00;3.20;;;15.50;99.90;;;;;;6241744;23;20016;-61
2023/06/30 05:24:34;;;;;;;7.43;2.72;;;15.70;99.90;;;;;;6242949;23;20433;-61
2023/06/30 05:27:01;;;;;;;6.65;2.92;;;15.80;99.90;;;;;;6242621;23;20063;-61
2023/06/30 05:29:31;;;;;;;7.88;3.00;;;16.20;99.90;;;;;;6242777;23;20023;-61
2023/06/30 05:31:59;;;;;;;6.60;3.08;;;16.40;99.90;;;;;;6243965;23;20078;-61
2023/06/30 05:34:26;;;;;;;5.03;2.67;;;16.70;99.90;;;;;;6242968;23;20024;-62
2023/06/30 05:36:54;;;;;;;10.40;3.40;;;16.90;99.90;;;;;;6244995;23;20464;-60
2023/06/30 05:39:21;;;;;;;11.25;3.35;;;17.20;99.90;;;;;;6242634;23;20028;-60
2023/06/30 05:41:48;;;;;;;11.18;3.97;;;17.10;99.90;;;;;;6243174;23;20460;-60
2023/06/30 05:44:15;;;;;;;10.52;2.75;;;17.20;99.90;;;;;;6243545;23;20020;-61
2023/06/30 05:46:42;;;;;;;8.05;2.70;;;17.30;99.90;;;;;;6244720;23;20031;-60
2023/06/30 05:49:10;;;;;;;11.40;3.22;;;17.40;99.90;;;;;;6245886;23;20074;-61
2023/06/30 05:51:37;;;;;;;10.57;3.25;;;17.30;99.90;;;;;;6244866;22;20025;-60
2023/06/30 05:54:05;;;;;;;12.13;3.35;;;17.40;99.90;;;;;;6238014;23;20438;-60
2023/06/30 05:56:32;;;;;;;5.53;2.65;;;17.50;99.90;;;;;;6229100;23;20399;-61
2023/06/30 05:58:59;;;;;;;10.10;3.45;;;17.60;99.90;;;;;;6245189;22;20178;-60
2023/06/30 06:01:26;;;;;;;7.97;3.00;;;17.70;99.90;;;;;;6245888;23;20467;-61
2023/06/30 06:03:53;;;;;;;7.07;3.03;;;17.60;99.90;;;;;;6245818;23;20026;-61
2023/06/30 06:06:22;;;;;;;4.85;2.40;;;17.70;99.90;;;;;;6245422;23;20024;-60
2023/06/30 06:08:49;;;;;;;9.70;3.33;;;17.70;99.90;;;;;;6245717;23;20378;-61
2023/06/30 06:11:16;;;;;;;6.90;2.88;;;17.90;99.90;;;;;;6245499;23;20031;-61
2023/06/30 06:13:43;;;;;;;12.27;2.83;;;18.10;99.90;;;;;;6245826;23;20024;-60
2023/06/30 06:16:10;;;;;;;8.15;2.40;;;18.30;99.90;;;;;;6245927;23;20026;-61
2023/06/30 06:18:37;;;;;;;8.13;2.83;;;18.40;99.90;;;;;;6245221;23;20035;-60
2023/06/30 06:21:04;;;;;;;7.50;2.65;;;18.60;99.90;;;;;;6245700;23;20465;-61
2023/06/30 06:23:33;;;;;;;5.15;2.30;;;18.70;99.90;;;;;;6244338;23;20079;-61
2023/06/30 06:26:01;;;;;;;7.47;2.70;;;18.80;99.90;;;;;;6243151;23;20078;-60
2023/06/30 06:28:28;;;;;;;8.90;2.08;;;18.90;99.90;;;;;;6245454;23;20024;-60
2023/06/30 06:30:55;;;;;;;6.63;1.92;;;18.90;99.90;;;;;;6245816;23;20028;-60
2023/06/30 06:33:22;;;;;;;7.82;2.28;;;19.10;99.90;;;;;;6243383;23;20354;-61
2023/06/30 06:35:51;;;;;;;5.10;2.15;;;19.20;99.90;;;;;;6245681;23;20020;-61
2023/06/30 06:38:18;;;;;;;7.10;2.20;;;19.50;99.90;;;;;;6245468;23;20024;-61
2023/06/30 06:40:46;;;;;;;70.50;5.85;;;19.70;99.90;;;;;;6242632;23;20524;-61
2023/06/30 06:43:13;;;;;;;12.13;2.58;;;20.00;99.90;;;;;;6245304;23;20466;-60
2023/06/30 06:45:41;;;;;;;6.22;1.83;;;20.00;99.90;;;;;;6245589;23;20032;-62
2023/06/30 06:48:19;;;;;;;6.18;1.77;;;20.10;99.90;;;;;;6245201;22;20412;-61
2023/06/30 06:50:47;;;;;;;7.22;1.77;;;20.20;99.90;;;;;;6245613;23;20024;-60
2023/06/30 06:53:20;;;;;;;7.40;2.30;;;20.30;99.90;;;;;;6243988;23;20030;-61
2023/06/30 06:55:49;;;;;;;5.80;1.90;;;20.40;99.90;;;;;;6243213;23;20023;-61
2023/06/30 06:58:16;;;;;;;5.53;2.17;;;20.50;99.90;;;;;;6245327;23;20020;-61
2023/06/30 07:00:44;;;;;;;7.47;2.30;;;20.80;99.90;;;;;;6244744;22;20020;-61
2023/06/30 07:03:11;;;;;;;7.55;1.90;;;20.80;99.90;;;;;;6243916;23;20020;-61
2023/06/30 07:05:39;;;;;;;8.35;2.15;;;20.80;99.90;;;;;;6245174;23;20484;-60
2023/06/30 07:08:07;;;;;;;3.22;1.25;;;20.90;99.90;;;;;;6244872;23;20028;-62
2023/06/30 07:10:34;;;;;;;6.47;1.70;;;20.90;99.90;;;;;;6245291;23;20024;-61
2023/06/30 07:13:03;;;;;;;5.13;1.95;;;21.10;99.90;;;;;;6245348;23;20031;-61
2023/06/30 07:15:30;;;;;;;4.75;1.80;;;21.50;99.90;;;;;;6244935;23;20032;-61
2023/06/30 07:17:57;;;;;;;6.18;1.77;;;21.70;99.90;;;;;;6245164;23;20024;-61
2023/06/30 07:20:25;;;;;;;6.18;1.40;;;21.70;99.90;;;;;;6244490;23;20024;-61
2023/06/30 07:22:53;;;;;;;5.38;1.58;;;21.70;99.90;;;;;;6244694;22;20022;-60
2023/06/30 07:25:20;;;;;;;5.35;1.83;;;21.40;99.90;;;;;;6245347;23;20090;-61
2023/06/30 07:27:52;;;;;;;5.25;1.35;;;21.30;99.90;;;;;;6243566;23;20062;-61
2023/06/30 07:30:21;;;;;;;4.07;1.55;;;21.60;99.90;;;;;;6244457;23;20078;-62
2023/06/30 07:32:49;;;;;;;4.20;1.77;;;21.90;99.90;;;;;;6243262;23;20066;-61
2023/06/30 07:35:17;;;;;;;5.20;1.70;;;21.80;99.90;;;;;;6245529;22;20027;-61
2023/06/30 07:37:44;;;;;;;7.07;1.40;;;21.60;99.90;;;;;;6244681;23;20023;-61
2023/06/30 07:40:12;;;;;;;7.15;1.80;;;21.60;99.90;;;;;;6244957;23;20474;-61
2023/06/30 07:42:39;;;;;;;4.53;1.40;;;21.90;99.90;;;;;;6242561;23;20020;-61
2023/06/30 07:45:09;;;;;;;8.52;1.35;;;22.30;99.90;;;;;;6244682;23;20104;-60
2023/06/30 07:47:39;;;;;;;6.85;2.50;;;23.00;99.90;;;;;;6245404;23;20028;-62
2023/06/30 07:50:09;;;;;;;5.55;1.30;;;23.10;99.90;;;;;;6244176;23;20078;-62
2023/06/30 07:52:37;;;;;;;5.63;1.33;;;22.60;99.90;;;;;;6245103;22;20024;-61
2023/06/30 07:55:05;;;;;;;4.43;1.40;;;22.10;99.90;;;;;;6244676;23;20571;-62
2023/06/30 07:57:32;;;;;;;4.65;1.50;;;21.90;99.90;;;;;;6237606;23;20032;-60
2023/06/30 07:59:59;;;;;;;8.25;1.80;;;21.90;99.90;;;;;;6243222;23;20035;-61
2023/06/30 08:02:26;;;;;;;2.65;1.35;;;22.60;99.90;;;;;;6243369;23;20610;-61
2023/06/30 08:04:54;;;;;;;7.60;1.25;;;23.40;99.90;;;;;;6243976;23;20020;-61
2023/06/30 08:07:21;;;;;;;3.35;1.40;;;24.10;99.90;;;;;;6243321;23;20027;-61
2023/06/30 08:09:48;;;;;;;7.13;1.63;;;23.40;99.40;;;;;;6243280;23;20024;-62
2023/06/30 08:12:16;;;;;;;3.47;1.23;;;23.10;99.90;;;;;;6242564;23;20070;-60
2023/06/30 08:14:43;;;;;;;9.35;1.45;;;22.60;99.90;;;;;;6243195;23;20024;-61
2023/06/30 08:17:10;;;;;;;3.55;1.20;;;22.80;99.90;;;;;;6245184;22;20028;-61
2023/06/30 08:19:41;;;;;;;2.75;1.10;;;23.50;98.90;;;;;;6242589;23;20025;-61
2023/06/30 08:22:13;;;;;;;5.55;1.23;;;23.80;97.70;;;;;;6244643;23;20020;-61
2023/06/30 08:24:41;;;;;;;6.57;1.52;;;24.10;95.70;;;;;;6245063;23;20074;-62
2023/06/30 08:27:08;;;;;;;2.95;1.40;;;24.60;95.20;;;;;;6244388;22;20028;-61
2023/06/30 08:29:36;;;;;;;6.82;1.40;;;25.20;95.80;;;;;;6245009;23;20028;-61
2023/06/30 08:32:04;;;;;;;3.30;1.20;;;24.80;95.00;;;;;;6242218;23;20028;-61
2023/06/30 08:34:31;;;;;;;5.13;1.60;;;24.20;95.80;;;;;;6244862;23;20035;-62
2023/06/30 08:36:58;;;;;;;4.43;1.42;;;24.00;96.20;;;;;;6242901;23;20024;-61
2023/06/30 08:39:27;;;;;;;3.50;1.20;;;24.50;96.00;;;;;;6244428;23;20020;-61
2023/06/30 08:41:55;;;;;;;5.40;1.20;;;25.20;94.80;;;;;;6244434;23;20058;-61
2023/06/30 08:44:25;;;;;;;5.55;1.13;;;25.40;93.40;;;;;;6244763;23;20076;-61
2023/06/30 08:46:52;;;;;;;5.97;1.25;;;25.40;93.40;;;;;;6243942;23;20024;-61
2023/06/30 08:49:22;;;;;;;2.40;1.00;;;24.80;93.50;;;;;;6244588;23;20458;-61
2023/06/30 08:51:51;;;;;;;;;;;24.40;93.80;;;;;;6243067;23;20051;-62
2023/06/30 08:54:19;;;;;;;8.00;1.10;;;24.10;93.10;;;;;;6241518;23;19919;-62
2023/06/30 08:56:48;;;;;;;2.90;0.98;;;24.00;94.50;;;;;;6242102;23;20358;-60
2023/06/30 08:59:15;;;;;;;4.30;1.08;;;24.70;94.00;;;;;;6242589;23;20020;-61
2023/06/30 09:01:43;;;;;;;3.22;0.85;;;25.40;93.20;;;;;;6242919;23;20024;-62
2023/06/30 09:04:11;;;;;;;6.00;1.30;;;26.10;92.10;;;;;;6246786;23;20024;-62
2023/06/30 09:06:43;;;;;;;6.05;1.20;;;26.30;90.90;;;;;;6244892;23;20082;-62
2023/06/30 09:09:12;;;;;;;6.55;1.48;;;26.80;90.90;;;;;;6245946;23;20027;-61
2023/06/30 09:11:40;;;;;;;6.80;1.42;;;27.10;90.90;;;;;;6246527;23;20103;-62
2023/06/30 09:14:10;;;;;;;3.40;1.00;;;26.50;90.30;;;;;;6246060;23;20050;-62
2023/06/30 09:16:37;;;;;;;4.20;1.38;;;26.20;90.80;;;;;;6245064;23;20032;-61
2023/06/30 09:19:05;;;;;;;4.32;1.23;;;25.70;90.90;;;;;;6244083;23;20077;-62
2023/06/30 09:21:32;;;;;;;2.50;1.10;;;26.00;90.90;;;;;;6246020;23;20035;-62
2023/06/30 09:23:59;;;;;;;4.80;1.27;;;26.60;90.60;;;;;;6245566;23;20034;-62
2023/06/30 09:26:30;;;;;;;6.25;1.20;;;26.80;90.10;;;;;;6246529;23;20024;-63
2023/06/30 09:28:57;;;;;;;4.43;1.13;;;26.40;87.80;;;;;;6241002;23;20079;-62
2023/06/30 09:31:32;;;;;;;2.90;1.15;;;25.70;87.50;;;;;;6241386;23;20024;-62
2023/06/30 09:34:10;;;;;;;3.17;1.30;;;25.70;86.60;;;;;;6241636;22;20075;-62
2023/06/30 09:36:38;;;;;;;2.63;1.05;;;26.20;86.40;;;;;;6241347;22;20078;-62
2023/06/30 09:39:08;;;;;;;4.53;1.00;;;26.90;87.10;;;;;;6242182;23;20078;-62
2023/06/30 09:41:35;;;;;;;4.90;1.40;;;27.30;85.50;;;;;;6239205;23;20024;-62
2023/06/30 09:44:04;;;;;;;5.88;1.02;;;26.80;86.60;;;;;;6242719;23;20032;-62
2023/06/30 09:46:32;;;;;;;3.63;1.00;;;26.00;85.70;;;;;;6246178;23;20070;-61
2023/06/30 09:49:01;;;;;;;2.80;0.88;;;25.40;85.10;;;;;;6245601;23;20437;-62
2023/06/30 09:51:31;;;;;;;6.03;1.30;;;25.00;84.30;;;;;;6245655;22;20345;-62
2023/06/30 09:53:58;;;;;;;7.43;1.08;;;25.30;85.60;;;;;;6243796;23;20020;-62
2023/06/30 09:56:26;;;;;;;3.58;1.20;;;25.10;86.00;;;;;;6245356;23;20031;-62
2023/06/30 09:58:57;;;;;;;6.20;1.50;;;24.60;86.80;;;;;;6244093;23;20074;-62
2023/06/30 10:01:25;;;;;;;4.25;1.50;;;24.80;88.10;;;;;;6246206;23;20020;-62
2023/06/30 10:03:54;;;;;;;4.03;1.13;;;24.90;87.90;;;;;;6245428;23;20031;-63
2023/06/30 10:06:22;;;;;;;3.35;1.00;;;25.70;86.30;;;;;;6244253;23;20024;-62
2023/06/30 10:08:51;;;;;;;4.35;1.02;;;26.40;86.00;;;;;;6243674;23;20024;-62
2023/06/30 10:11:19;;;;;;;4.18;1.75;;;27.00;84.50;;;;;;6244945;23;20492;-62
2023/06/30 10:13:47;;;;;;;4.78;0.93;;;27.20;82.30;;;;;;6243681;23;20020;-62
2023/06/30 10:16:17;;;;;;;4.65;1.27;;;27.60;84.00;;;;;;6244045;23;20059;-63
2023/06/30 10:18:47;;;;;;;3.60;1.45;;;27.90;82.40;;;;;;6245346;23;20020;-61
2023/06/30 10:21:15;;;;;;;6.25;1.33;;;28.70;80.90;;;;;;6246024;23;20349;-61
2023/06/30 10:23:45;;;;;;;2.60;0.90;;;28.90;80.30;;;;;;6246170;22;20016;-61
2023/06/30 10:26:14;;;;;;;2.03;0.88;;;29.20;78.90;;;;;;6243603;23;20032;-62
2023/06/30 10:28:41;;;;;;;4.97;1.00;;;29.30;78.00;;;;;;6245402;22;20111;-61
2023/06/30 10:31:10;;;;;;;4.55;1.20;;;29.00;76.50;;;;;;6245603;23;20255;-61
2023/06/30 10:33:38;;;;;;;3.47;0.98;;;28.60;76.10;;;;;;6244922;23;20066;-62
2023/06/30 10:36:06;;;;;;;4.07;0.90;;;28.50;74.60;;;;;;6245676;23;20020;-62
2023/06/30 10:38:35;;;;;;;4.47;1.00;;;28.30;74.90;;;;;;6243279;23;20446;-62
2023/06/30 10:41:18;;;;;;;3.97;1.27;;;27.90;76.10;;;;;;6245253;23;20024;-62
2023/06/30 10:44:09;;;;;;;5.20;1.63;;;27.80;75.00;;;;;;6245841;22;20020;-62
2023/06/30 10:46:53;;;;;;;6.68;1.38;;;27.80;75.50;;;;;;6222303;23;20028;-62
2023/06/30 10:49:23;;;;;;;4.53;1.80;;;27.70;75.70;;;;;;6243910;23;20020;-62
2023/06/30 10:51:51;;;;;;;4.57;1.40;;;27.10;76.60;;;;;;6245481;23;20331;-62
2023/06/30 10:54:23;;;;;;;3.20;1.33;;;26.60;78.30;;;;;;6242493;23;20027;-62
2023/06/30 10:56:51;;;;;;;3.17;1.38;;;26.80;77.50;;;;;;6244498;23;20537;-62
2023/06/30 10:59:24;;;;;;;3.58;1.20;;;27.00;78.00;;;;;;6237212;23;20028;-62
2023/06/30 11:02:14;;;;;;;3.47;1.25;;;27.70;76.60;;;;;;6242672;23;20126;-62
2023/06/30 11:04:41;;;;;;;3.70;1.48;;;28.30;74.80;;;;;;6245568;23;20020;-63
2023/06/30 11:07:10;;;;;;;5.30;1.10;;;28.40;75.10;;;;;;6242982;23;20024;-62
2023/06/30 11:09:58;;;;;;;6.03;1.35;;;29.10;75.00;;;;;;6245402;23;20034;-63
2023/06/30 11:12:27;;;;;;;9.10;1.27;;;29.20;74.20;;;;;;6244897;23;20086;-62
2023/06/30 11:14:55;;;;;;;2.30;0.97;;;29.60;74.60;;;;;;6244791;23;20016;-62
2023/06/30 11:17:23;;;;;;;7.78;1.30;;;29.00;73.80;;;;;;6245382;23;20024;-62
2023/06/30 11:20:09;;;;;;;9.70;1.98;;;28.30;73.80;;;;;;6244944;22;20358;-62
2023/06/30 11:22:36;;;;;;;6.60;1.98;;;27.30;73.40;;;;;;6242370;23;20074;-62
2023/06/30 11:25:08;;;;;;;5.72;1.70;;;26.90;76.00;;;;;;6242921;23;20454;-62
2023/06/30 11:27:36;;;;;;;6.15;1.90;;;26.40;76.70;;;;;;6245071;23;20020;-62
2023/06/30 11:30:03;;;;;;;4.38;1.50;;;25.90;77.00;;;;;;6244536;22;20020;-62
2023/06/30 11:32:31;;;;;;;5.88;1.10;;;26.40;76.30;;;;;;6243095;23;20024;-62
2023/06/30 11:34:59;;;;;;;3.25;1.63;;;26.80;76.70;;;;;;6242374;23;20373;-61
2023/06/30 11:37:27;;;;;;;4.47;1.30;;;26.80;76.10;;;;;;6243202;23;20464;-62
2023/06/30 11:39:55;;;;;;;5.63;1.42;;;26.90;75.10;;;;;;6244940;23;20024;-62
2023/06/30 11:42:24;;;;;;;4.88;1.83;;;27.20;75.30;;;;;;6243743;23;20030;-62
2023/06/30 11:44:51;;;;;;;8.27;1.58;;;27.30;74.20;;;;;;6242960;23;20055;-62
2023/06/30 11:47:18;;;;;;;4.32;1.75;;;27.60;74.60;;;;;;6244807;23;20027;-62
2023/06/30 11:49:46;;;;;;;2.95;1.50;;;27.70;74.40;;;;;;6242309;23;20081;-62
2023/06/30 11:52:14;;;;;;;3.88;1.50;;;27.70;73.70;;;;;;6244946;23;20028;-62
2023/06/30 11:54:42;;;;;;;3.55;1.33;;;28.00;74.20;;;;;;6243834;22;20099;-62
2023/06/30 11:57:09;;;;;;;5.65;1.45;;;28.10;74.20;;;;;;6243914;23;20028;-61
2023/06/30 11:59:38;;;;;;;2.97;1.20;;;28.10;73.50;;;;;;6244354;23;20031;-61
2023/06/30 12:02:05;;;;;;;2.92;1.00;;;27.90;74.10;;;;;;6244655;23;20051;-61
2023/06/30 12:04:36;;;;;;;3.38;1.50;;;27.40;74.40;;;;;;6243934;23;20118;-63
2023/06/30 12:07:05;;;;;;;2.92;1.30;;;27.40;74.10;;;;;;6244860;23;20020;-63
2023/06/30 12:09:32;;;;;;;4.97;1.87;;;28.00;74.50;;;;;;6243042;23;20024;-63
2023/06/30 12:12:00;;;;;;;9.85;1.70;;;27.50;73.40;;;;;;6244183;23;20243;-62
2023/06/30 12:14:28;;;;;;;7.35;2.15;;;27.40;73.20;;;;;;6242792;23;20469;-63
2023/06/30 12:16:57;;;;;;;4.25;1.38;;;26.90;73.50;;;;;;6244479;23;20453;-63
2023/06/30 12:19:25;;;;;;;3.28;1.38;;;27.00;73.90;;;;;;6244894;23;20020;-61
2023/06/30 12:21:54;;;;;;;5.10;1.65;;;27.20;74.60;;;;;;6243644;23;20024;-62
2023/06/30 12:24:22;;;;;;;5.18;1.35;;;26.90;73.60;;;;;;6242039;23;20032;-62
2023/06/30 12:26:50;;;;;;;2.95;1.30;;;26.20;74.30;;;;;;6244618;23;20031;-61
2023/06/30 12:29:17;;;;;;;3.60;1.30;;;26.30;75.30;;;;;;6242184;23;20489;-61
2023/06/30 12:31:45;;;;;;;3.47;1.27;;;26.90;74.90;;;;;;6242422;23;20409;-62
2023/06/30 12:34:13;;;;;;;3.08;1.30;;;27.70;74.60;;;;;;6244296;22;20103;-62
2023/06/30 12:36:40;;;;;;;2.78;1.25;;;28.40;73.70;;;;;;6245609;23;20074;-62
2023/06/30 12:39:07;;;;;;;4.75;1.40;;;28.60;73.30;;;;;;6245873;22;20082;-61
2023/06/30 12:41:34;;;;;;;2.85;1.10;;;28.70;73.00;;;;;;6243464;23;20039;-61
2023/06/30 12:44:03;;;;;;;10.07;1.95;;;29.50;72.80;;;;;;6246791;23;20022;-62
2023/06/30 12:46:30;;;;;;;3.47;1.40;;;29.70;72.00;;;;;;6245649;23;20023;-62
2023/06/30 12:48:57;;;;;;;4.90;1.70;;;29.20;71.50;;;;;;6244841;23;20024;-61
2023/06/30 12:51:25;;;;;;;4.97;1.50;;;29.40;71.40;;;;;;6246338;23;20485;-61